Time;durP1;ratioP1;P1;durP2;ratioP2;P2;SDS_P1;SDS_P2;PMS_P1;PMS_P2;Temp;Humidity;BMP_temperature;BMP_pressure;BME280_temperature;BME280_humidity;BME280_pressure;Samples;Min_cycle;Max_cycle;Signal;HPM_P1;HPM_P2
2023/10/24 00:00:42;;;;;;;3.00;2.80;;;20.10;73.60;;;;;;4974779;28;20459;-80
2023/10/24 00:03:10;;;;;;;3.27;2.97;;;20.10;73.20;;;;;;4969894;28;20552;-78
2023/10/24 00:05:38;;;;;;;5.83;3.00;;;20.10;73.50;;;;;;4978223;28;20455;-79
2023/10/24 00:08:07;;;;;;;3.57;3.23;;;20.10;73.40;;;;;;4977298;28;20458;-79
2023/10/24 00:10:36;;;;;;;3.10;2.60;;;20.00;73.80;;;;;;4964793;28;20527;-80
2023/10/24 00:13:04;;;;;;;6.97;3.10;;;20.10;73.70;;;;;;4977958;28;20457;-78
2023/10/24 00:15:33;;;;;;;3.43;3.10;;;20.00;73.80;;;;;;4979265;28;20480;-80
2023/10/24 00:18:01;;;;;;;4.43;2.87;;;20.10;73.70;;;;;;4977546;28;20450;-79
2023/10/24 00:20:30;;;;;;;3.70;2.90;;;20.10;73.80;;;;;;4976491;28;20454;-79
2023/10/24 00:22:58;;;;;;;4.20;2.83;;;20.00;73.90;;;;;;4980442;28;20502;-80
2023/10/24 00:25:26;;;;;;;4.37;2.83;;;20.00;73.90;;;;;;4978362;28;20505;-79
2023/10/24 00:27:55;;;;;;;10.93;3.00;;;20.10;73.90;;;;;;4986380;28;20477;-79
2023/10/24 00:30:23;;;;;;;4.20;2.77;;;20.00;73.80;;;;;;4974965;28;20485;-79
2023/10/24 00:32:51;;;;;;;5.00;3.00;;;20.00;74.00;;;;;;4971030;28;20446;-79
2023/10/24 00:35:19;;;;;;;4.40;3.07;;;20.00;74.30;;;;;;4968889;28;20468;-79
2023/10/24 00:37:47;;;;;;;4.27;3.27;;;20.00;74.00;;;;;;4974666;28;20442;-78
2023/10/24 00:40:16;;;;;;;6.07;3.30;;;20.00;74.20;;;;;;4975054;28;20454;-78
2023/10/24 00:42:44;;;;;;;4.30;2.93;;;20.10;74.30;;;;;;4971069;28;20446;-79
2023/10/24 00:45:13;;;;;;;5.40;3.50;;;20.00;74.00;;;;;;4970478;28;20527;-79
2023/10/24 00:47:42;;;;;;;3.03;2.73;;;20.00;74.20;;;;;;4975593;28;20443;-79
2023/10/24 00:50:10;;;;;;;4.90;2.90;;;20.00;74.30;;;;;;4974802;28;20450;-79
2023/10/24 00:52:38;;;;;;;3.47;2.80;;;20.00;74.20;;;;;;4976372;28;20530;-80
2023/10/24 00:55:07;;;;;;;3.60;3.27;;;20.00;74.20;;;;;;4975360;28;20463;-79
2023/10/24 00:57:35;;;;;;;9.90;3.30;;;20.00;74.60;;;;;;4973696;28;20477;-78
2023/10/24 01:00:03;;;;;;;2.70;2.50;;;20.00;74.40;;;;;;4974532;28;20533;-79
2023/10/24 01:02:33;;;;;;;7.00;2.73;;;20.00;74.40;;;;;;4964643;28;20489;-78
2023/10/24 01:05:01;;;;;;;2.73;2.53;;;20.00;74.70;;;;;;4967825;28;20486;-79
2023/10/24 01:07:30;;;;;;;3.03;2.83;;;20.00;74.70;;;;;;4972643;28;20462;-79
2023/10/24 01:09:58;;;;;;;2.60;2.37;;;20.00;74.90;;;;;;4970809;28;20451;-79
2023/10/24 01:12:27;;;;;;;4.47;3.30;;;20.00;74.80;;;;;;4972087;28;20455;-80
2023/10/24 01:14:55;;;;;;;4.60;3.03;;;20.00;74.90;;;;;;4979211;28;20466;-78
2023/10/24 01:17:23;;;;;;;4.77;3.30;;;20.00;75.00;;;;;;4978127;28;20480;-79
2023/10/24 01:19:53;;;;;;;2.70;2.40;;;20.00;74.70;;;;;;4989474;28;20440;-81
2023/10/24 01:22:22;;;;;;;2.63;2.50;;;20.00;74.80;;;;;;4990151;28;20438;-80
2023/10/24 01:24:51;;;;;;;2.43;2.33;;;20.00;75.00;;;;;;4982775;28;20481;-79
2023/10/24 01:27:19;;;;;;;2.53;2.43;;;20.00;74.80;;;;;;4969820;28;20425;-79
2023/10/24 01:29:47;;;;;;;2.70;2.50;;;20.00;74.80;;;;;;4970730;28;20480;-78
2023/10/24 01:32:15;;;;;;;3.70;2.90;;;20.00;75.00;;;;;;4967800;28;20449;-78
2023/10/24 01:34:43;;;;;;;2.53;2.40;;;20.00;75.20;;;;;;4967956;28;20505;-78
2023/10/24 01:37:11;;;;;;;2.30;2.17;;;20.00;75.20;;;;;;4971892;28;20469;-78
2023/10/24 01:39:40;;;;;;;3.00;2.80;;;20.00;75.10;;;;;;4973565;28;20462;-78
2023/10/24 01:42:09;;;;;;;3.13;2.90;;;20.00;75.10;;;;;;4968997;28;20454;-78
2023/10/24 01:44:36;;;;;;;6.13;2.80;;;20.00;75.10;;;;;;4980359;28;20536;-81
2023/10/24 01:47:05;;;;;;;3.60;2.60;;;20.00;75.30;;;;;;4972756;28;20497;-78
2023/10/24 01:49:32;;;;;;;2.83;2.63;;;20.00;75.30;;;;;;4973785;28;20482;-78
2023/10/24 01:52:01;;;;;;;3.00;2.80;;;20.00;75.20;;;;;;4974962;28;20454;-77
2023/10/24 01:54:28;;;;;;;2.83;2.63;;;20.00;75.40;;;;;;4973825;28;20533;-78
2023/10/24 01:56:57;;;;;;;3.73;2.50;;;19.90;75.60;;;;;;4976475;28;20532;-78
2023/10/24 01:59:25;;;;;;;3.00;2.67;;;19.90;75.30;;;;;;4978242;28;20525;-78
2023/10/24 02:01:53;;;;;;;2.70;2.50;;;19.90;75.50;;;;;;4977185;28;20541;-79
2023/10/24 02:04:21;;;;;;;2.63;2.43;;;19.90;75.30;;;;;;4969083;28;20485;-76
2023/10/24 02:06:49;;;;;;;2.73;2.50;;;20.00;75.40;;;;;;4975669;28;20450;-79
2023/10/24 02:09:18;;;;;;;3.10;2.70;;;19.90;75.30;;;;;;4976680;28;20549;-79
2023/10/24 02:11:46;;;;;;;3.00;2.70;;;19.90;75.60;;;;;;4979807;28;20481;-79
2023/10/24 02:14:16;;;;;;;2.50;2.40;;;19.90;75.60;;;;;;4972282;28;20474;-79
2023/10/24 02:16:44;;;;;;;2.90;2.50;;;19.90;75.40;;;;;;4975233;28;20545;-80
2023/10/24 02:19:12;;;;;;;2.60;2.40;;;19.90;75.70;;;;;;4968910;28;20446;-80
2023/10/24 02:21:40;;;;;;;3.67;2.40;;;20.00;75.70;;;;;;4975675;28;20442;-79
2023/10/24 02:24:09;;;;;;;3.00;2.80;;;20.00;75.80;;;;;;4975786;28;20541;-78
2023/10/24 02:26:37;;;;;;;2.93;2.27;;;19.90;75.60;;;;;;4969560;28;20937;-77
2023/10/24 02:29:05;;;;;;;2.33;2.23;;;19.90;75.60;;;;;;4976097;28;20545;-79
2023/10/24 02:31:35;;;;;;;2.73;2.50;;;19.90;75.80;;;;;;4976752;28;20477;-78
2023/10/24 02:34:03;;;;;;;2.40;2.30;;;19.90;75.80;;;;;;4968354;28;20472;-78
2023/10/24 02:36:31;;;;;;;3.70;2.53;;;19.90;75.70;;;;;;4976048;28;20537;-78
2023/10/24 02:38:59;;;;;;;5.33;2.40;;;19.90;75.80;;;;;;4976277;28;20527;-77
2023/10/24 02:41:27;;;;;;;3.03;2.73;;;19.90;75.60;;;;;;4977688;28;20513;-78
2023/10/24 02:43:56;;;;;;;2.27;2.17;;;20.00;75.70;;;;;;4978437;28;20976;-79
2023/10/24 02:46:24;;;;;;;2.87;2.67;;;19.90;75.40;;;;;;4977697;28;20473;-78
2023/10/24 02:48:54;;;;;;;2.50;2.27;;;19.90;75.70;;;;;;4977628;28;20442;-78
2023/10/24 02:51:22;;;;;;;2.60;2.40;;;19.90;75.70;;;;;;4978044;28;20435;-78
2023/10/24 02:53:50;;;;;;;2.87;2.50;;;19.90;75.80;;;;;;4964014;28;20499;-78
2023/10/24 02:56:18;;;;;;;3.50;2.33;;;19.90;75.70;;;;;;4978526;28;20462;-79
2023/10/24 02:58:46;;;;;;;4.13;2.23;;;19.90;75.80;;;;;;4976234;28;20470;-78
2023/10/24 03:01:14;;;;;;;2.33;2.17;;;19.90;75.80;;;;;;4976006;28;20517;-78
2023/10/24 03:03:42;;;;;;;3.67;2.53;;;19.90;75.80;;;;;;4972052;28;20481;-77
2023/10/24 03:06:15;;;;;;;2.63;2.33;;;19.90;75.80;;;;;;4965398;28;20501;-78
2023/10/24 03:08:44;;;;;;;2.67;2.47;;;19.90;75.70;;;;;;4974260;28;20450;-78
2023/10/24 03:11:12;;;;;;;2.13;2.03;;;19.90;75.80;;;;;;4968524;28;20450;-78
2023/10/24 03:13:40;;;;;;;2.33;2.03;;;19.90;76.00;;;;;;4975304;28;20462;-78
2023/10/24 03:16:08;;;;;;;2.73;2.53;;;19.90;75.90;;;;;;4971334;28;20492;-78
2023/10/24 03:18:37;;;;;;;2.33;2.17;;;19.90;76.00;;;;;;4975548;28;20488;-78
2023/10/24 03:21:05;;;;;;;2.30;1.93;;;19.90;75.80;;;;;;4975099;28;20497;-77
2023/10/24 03:23:34;;;;;;;4.50;2.33;;;19.90;76.00;;;;;;4975280;28;20502;-78
2023/10/24 03:26:05;;;;;;;2.50;2.27;;;19.90;75.80;;;;;;4968573;28;20506;-77
2023/10/24 03:28:33;;;;;;;2.40;2.20;;;19.90;76.00;;;;;;4981417;28;20449;-78
2023/10/24 03:31:02;;;;;;;2.10;2.00;;;19.90;75.70;;;;;;4971188;28;20451;-78
2023/10/24 03:33:31;;;;;;;2.30;2.10;;;19.90;76.00;;;;;;4976742;28;20474;-78
2023/10/24 03:35:59;;;;;;;2.27;2.17;;;19.80;76.00;;;;;;4980763;28;20447;-78
2023/10/24 03:38:27;;;;;;;2.60;2.40;;;19.90;76.10;;;;;;4978750;28;20553;-78
2023/10/24 03:40:57;;;;;;;2.93;2.40;;;19.80;75.90;;;;;;4975196;28;20878;-78
2023/10/24 03:43:25;;;;;;;2.17;1.97;;;19.90;76.00;;;;;;4974946;28;21034;-78
2023/10/24 03:45:53;;;;;;;2.40;2.20;;;19.80;75.90;;;;;;4969368;28;20501;-77
2023/10/24 03:48:21;;;;;;;2.93;2.30;;;19.80;76.20;;;;;;4971863;28;20467;-79
2023/10/24 03:50:49;;;;;;;3.40;2.33;;;19.80;76.00;;;;;;4974002;28;20760;-78
2023/10/24 03:53:17;;;;;;;2.70;2.47;;;19.90;76.30;;;;;;4972250;28;20543;-77
2023/10/24 03:55:45;;;;;;;2.40;2.20;;;19.90;76.10;;;;;;4974713;28;20533;-78
2023/10/24 03:58:15;;;;;;;2.00;1.90;;;19.90;76.10;;;;;;4972119;28;20465;-78
2023/10/24 04:00:43;;;;;;;2.90;2.20;;;19.90;76.00;;;;;;4973701;28;20510;-78
2023/10/24 04:03:11;;;;;;;2.13;2.00;;;19.90;76.20;;;;;;4967754;28;20458;-76
2023/10/24 04:05:40;;;;;;;2.30;2.20;;;19.80;76.10;;;;;;4975041;28;20506;-78
2023/10/24 04:08:08;;;;;;;2.30;2.17;;;19.90;76.20;;;;;;4975947;28;20905;-78
2023/10/24 04:10:37;;;;;;;2.70;2.50;;;19.80;76.20;;;;;;4962962;28;20533;-78
2023/10/24 04:13:05;;;;;;;2.53;2.33;;;19.80;76.20;;;;;;4973206;28;20458;-78
2023/10/24 04:15:35;;;;;;;2.30;2.10;;;19.90;76.30;;;;;;4974860;28;20470;-78
2023/10/24 04:18:04;;;;;;;2.30;2.20;;;19.90;76.10;;;;;;4974205;28;20570;-78
2023/10/24 04:20:32;;;;;;;2.27;1.93;;;19.80;76.00;;;;;;4973879;28;20534;-77
2023/10/24 04:23:01;;;;;;;2.37;2.20;;;19.80;76.60;;;;;;4974431;28;20481;-78
2023/10/24 04:25:30;;;;;;;1.90;1.80;;;19.90;76.30;;;;;;4987140;28;20501;-78
2023/10/24 04:27:59;;;;;;;2.17;2.07;;;19.80;76.00;;;;;;4991782;28;20442;-78
2023/10/24 04:30:27;;;;;;;1.97;1.87;;;19.90;76.20;;;;;;4990414;28;20454;-77
2023/10/24 04:32:57;;;;;;;2.10;1.87;;;19.90;77.00;;;;;;4980535;28;20478;-76
2023/10/24 04:35:25;;;;;;;2.13;2.03;;;19.90;76.10;;;;;;4981168;28;20477;-76
2023/10/24 04:37:53;;;;;;;1.70;1.60;;;19.80;76.20;;;;;;4978865;28;20442;-77
2023/10/24 04:40:22;;;;;;;2.10;2.00;;;19.80;76.30;;;;;;4975797;28;20450;-77
2023/10/24 04:42:51;;;;;;;2.13;2.03;;;19.80;76.10;;;;;;4967630;28;20858;-77
2023/10/24 04:45:19;;;;;;;2.97;2.13;;;19.80;76.30;;;;;;4975903;28;20529;-78
2023/10/24 04:47:47;;;;;;;2.63;2.40;;;19.80;76.20;;;;;;4980151;28;20450;-80
2023/10/24 04:50:17;;;;;;;2.43;2.33;;;19.80;75.90;;;;;;4983504;28;20462;-79
2023/10/24 04:52:45;;;;;;;2.07;1.97;;;19.90;76.30;;;;;;4979873;28;20442;-78
2023/10/24 04:55:14;;;;;;;2.30;2.10;;;19.80;76.20;;;;;;4972400;28;20485;-78
2023/10/24 04:57:43;;;;;;;2.20;2.10;;;19.80;76.30;;;;;;4977860;28;20446;-78
2023/10/24 05:00:12;;;;;;;2.00;1.90;;;19.80;76.10;;;;;;4972756;28;20482;-79
2023/10/24 05:02:40;;;;;;;3.07;2.20;;;19.80;76.30;;;;;;4971722;28;20435;-78
2023/10/24 05:05:09;;;;;;;2.03;1.93;;;19.80;76.40;;;;;;4975119;28;20477;-79
2023/10/24 05:07:39;;;;;;;2.10;2.00;;;19.80;76.30;;;;;;4977551;28;20435;-79
2023/10/24 05:10:08;;;;;;;2.07;1.97;;;19.80;76.40;;;;;;4966314;28;20489;-78
2023/10/24 05:12:36;;;;;;;2.30;2.20;;;19.80;76.60;;;;;;4972013;28;20454;-78
2023/10/24 05:15:05;;;;;;;2.60;2.10;;;19.80;77.00;;;;;;4972822;28;20465;-78
2023/10/24 05:17:33;;;;;;;2.03;1.90;;;19.80;76.40;;;;;;4972596;28;20537;-78
2023/10/24 05:20:03;;;;;;;2.27;2.07;;;19.80;76.30;;;;;;4973320;28;20453;-77
2023/10/24 05:22:32;;;;;;;2.17;2.00;;;19.80;76.50;;;;;;4973225;28;20533;-78
2023/10/24 05:25:01;;;;;;;2.13;2.03;;;19.80;76.30;;;;;;4973870;28;20509;-79
2023/10/24 05:27:31;;;;;;;2.27;2.17;;;19.80;76.40;;;;;;4972829;28;20502;-78
2023/10/24 05:29:59;;;;;;;2.33;2.13;;;19.80;76.60;;;;;;4973082;28;20481;-79
2023/10/24 05:32:27;;;;;;;2.30;2.20;;;19.80;76.50;;;;;;4973641;28;20442;-78
2023/10/24 05:34:55;;;;;;;5.60;2.50;;;19.80;76.30;;;;;;4973583;28;20468;-78
2023/10/24 05:37:23;;;;;;;2.60;2.30;;;19.80;76.30;;;;;;4972862;28;20537;-79
2023/10/24 05:39:52;;;;;;;3.00;2.80;;;19.80;76.30;;;;;;4975220;28;20448;-78
2023/10/24 05:42:21;;;;;;;2.50;2.40;;;19.80;76.60;;;;;;4974806;28;20446;-78
2023/10/24 05:44:50;;;;;;;2.63;2.37;;;19.80;76.70;;;;;;4973927;28;21039;-79
2023/10/24 05:47:18;;;;;;;2.30;2.10;;;19.80;76.50;;;;;;4971562;28;20478;-79
2023/10/24 05:49:47;;;;;;;2.33;2.23;;;19.80;76.50;;;;;;4970550;28;20504;-79
2023/10/24 05:52:15;;;;;;;3.40;2.50;;;19.80;76.50;;;;;;4968250;28;20450;-79
2023/10/24 05:54:43;;;;;;;2.60;2.40;;;19.80;76.30;;;;;;4972896;28;20497;-79
2023/10/24 05:57:11;;;;;;;2.30;2.20;;;19.80;76.40;;;;;;4966260;28;20450;-79
2023/10/24 05:59:42;;;;;;;2.60;2.50;;;19.80;76.20;;;;;;4968235;28;20449;-79
2023/10/24 06:02:10;;;;;;;2.77;2.50;;;19.80;76.30;;;;;;4965009;28;20451;-78
2023/10/24 06:04:38;;;;;;;2.40;2.20;;;19.80;76.20;;;;;;4970820;28;20574;-80
2023/10/24 06:07:08;;;;;;;2.10;2.00;;;19.80;76.10;;;;;;4969881;28;20534;-79
2023/10/24 06:09:36;;;;;;;3.30;2.80;;;19.80;76.20;;;;;;4968170;28;20642;-79
2023/10/24 06:12:04;;;;;;;2.20;2.10;;;19.80;76.20;;;;;;4981376;28;20445;-79
2023/10/24 06:14:33;;;;;;;2.27;2.17;;;19.80;76.00;;;;;;4969060;28;20552;-78
2023/10/24 06:17:03;;;;;;;2.23;2.10;;;19.80;76.20;;;;;;4973175;28;20453;-79
2023/10/24 06:19:33;;;;;;;2.73;2.53;;;19.80;76.20;;;;;;4968364;28;20454;-79
2023/10/24 06:22:01;;;;;;;2.47;2.30;;;19.80;76.30;;;;;;4972115;28;20433;-79
2023/10/24 06:24:29;;;;;;;2.70;2.50;;;19.80;76.30;;;;;;4974028;28;20557;-78
2023/10/24 06:26:57;;;;;;;2.30;2.20;;;19.80;76.20;;;;;;4968671;28;20508;-78
2023/10/24 06:29:25;;;;;;;2.70;2.50;;;19.80;76.30;;;;;;4975587;28;20519;-79
2023/10/24 06:31:54;;;;;;;2.73;2.53;;;19.80;76.40;;;;;;4975319;28;20438;-79
2023/10/24 06:34:24;;;;;;;2.60;2.40;;;19.80;76.30;;;;;;4975386;28;20528;-79
2023/10/24 06:36:52;;;;;;;2.30;2.20;;;19.80;76.30;;;;;;4970004;28;20534;-79
2023/10/24 06:39:20;;;;;;;2.60;2.40;;;19.80;76.30;;;;;;4970453;28;20525;-79
2023/10/24 06:41:48;;;;;;;2.50;2.40;;;19.80;76.40;;;;;;4975432;28;20564;-79
2023/10/24 06:44:16;;;;;;;2.50;2.30;;;19.80;76.30;;;;;;4975175;28;20475;-79
2023/10/24 06:46:44;;;;;;;2.30;2.20;;;19.80;76.20;;;;;;4975495;28;20566;-79
2023/10/24 06:49:13;;;;;;;2.50;2.40;;;19.90;76.40;;;;;;4974864;28;20504;-79
2023/10/24 06:51:42;;;;;;;2.97;2.20;;;19.80;76.60;;;;;;4970151;28;20450;-79
2023/10/24 06:54:10;;;;;;;2.33;2.23;;;19.80;76.30;;;;;;4975093;28;20425;-79
2023/10/24 06:56:38;;;;;;;2.37;2.07;;;19.90;76.40;;;;;;4975133;28;20450;-79
2023/10/24 06:59:06;;;;;;;2.33;2.23;;;19.90;76.50;;;;;;4975017;28;20521;-79
2023/10/24 07:01:34;;;;;;;2.57;2.37;;;19.90;76.40;;;;;;4975062;28;20470;-79
2023/10/24 07:04:02;;;;;;;2.50;2.30;;;19.90;76.00;;;;;;4975591;28;20573;-79
2023/10/24 07:06:30;;;;;;;2.20;2.10;;;19.90;76.40;;;;;;4967830;28;20482;-79
2023/10/24 07:09:00;;;;;;;2.10;2.00;;;20.00;76.40;;;;;;4975280;28;20473;-79
2023/10/24 07:11:28;;;;;;;1.80;1.70;;;20.00;76.10;;;;;;4974226;28;20454;-79
2023/10/24 07:13:56;;;;;;;2.50;2.23;;;20.00;76.00;;;;;;4974900;28;20450;-79
2023/10/24 07:16:27;;;;;;;2.10;2.00;;;20.00;76.20;;;;;;4972293;28;20554;-78
2023/10/24 07:18:55;;;;;;;2.30;2.20;;;20.00;76.20;;;;;;4974181;28;20533;-80
2023/10/24 07:21:23;;;;;;;1.80;1.70;;;20.00;76.10;;;;;;4974428;28;20512;-79
2023/10/24 07:23:54;;;;;;;2.00;1.90;;;20.00;75.90;;;;;;4970917;28;20498;-79
2023/10/24 07:26:24;;;;;;;2.50;2.40;;;20.10;76.00;;;;;;4970184;28;20470;-79
2023/10/24 07:28:56;;;;;;;2.17;2.07;;;20.10;75.90;;;;;;4974666;28;20462;-79
2023/10/24 07:31:34;;;;;;;1.97;1.87;;;20.10;75.80;;;;;;4975191;28;20446;-79
2023/10/24 07:34:04;;;;;;;2.30;2.20;;;20.10;75.90;;;;;;4993241;28;20500;-81
2023/10/24 07:36:32;;;;;;;2.10;2.00;;;20.10;75.90;;;;;;4995130;28;20461;-79
2023/10/24 07:39:01;;;;;;;2.30;2.20;;;20.10;75.70;;;;;;4990231;28;20942;-79
2023/10/24 07:41:30;;;;;;;2.60;2.40;;;20.10;75.60;;;;;;4983039;28;20467;-79
2023/10/24 07:43:58;;;;;;;2.67;2.57;;;20.00;75.60;;;;;;4981640;28;20458;-80
2023/10/24 07:46:26;;;;;;;2.40;2.20;;;20.10;75.80;;;;;;4980397;28;20443;-77
2023/10/24 07:48:55;;;;;;;2.30;2.20;;;20.00;75.80;;;;;;4975173;28;20460;-80
2023/10/24 07:51:25;;;;;;;3.07;2.40;;;20.00;75.70;;;;;;4972315;28;20482;-81
2023/10/24 07:53:55;;;;;;;2.70;2.50;;;20.00;75.80;;;;;;4975820;28;20515;-79
2023/10/24 07:56:23;;;;;;;2.37;2.17;;;20.00;76.00;;;;;;4970047;28;20446;-78
2023/10/24 07:58:52;;;;;;;2.40;2.30;;;20.00;75.90;;;;;;4971501;28;20438;-79
2023/10/24 08:01:20;;;;;;;2.17;2.07;;;20.00;75.80;;;;;;4972390;28;20533;-79
2023/10/24 08:03:48;;;;;;;2.23;2.10;;;20.00;76.00;;;;;;4973600;28;20472;-79
2023/10/24 08:06:17;;;;;;;2.43;2.20;;;20.00;75.90;;;;;;4973134;28;20453;-78
2023/10/24 08:08:45;;;;;;;5.70;2.00;;;20.10;75.80;;;;;;4973281;28;20474;-77
2023/10/24 08:11:13;;;;;;;2.27;2.17;;;20.00;75.90;;;;;;4973897;28;20432;-77
2023/10/24 08:13:41;;;;;;;2.10;2.00;;;20.10;76.00;;;;;;4965449;28;20513;-79
2023/10/24 08:16:11;;;;;;;2.43;2.27;;;20.10;75.90;;;;;;4963896;28;20450;-79
2023/10/24 08:18:39;;;;;;;2.90;2.43;;;20.10;76.10;;;;;;4974038;28;20537;-79
2023/10/24 08:21:09;;;;;;;2.57;2.37;;;20.10;76.00;;;;;;4965418;28;20510;-78
2023/10/24 08:23:37;;;;;;;2.37;2.17;;;20.10;75.80;;;;;;4973914;28;20483;-79
2023/10/24 08:26:06;;;;;;;2.07;1.97;;;20.10;75.70;;;;;;4957271;28;20471;-80
2023/10/24 08:28:34;;;;;;;1.97;1.87;;;20.10;75.90;;;;;;4973833;28;20473;-77
2023/10/24 08:31:02;;;;;;;2.20;1.97;;;20.10;75.90;;;;;;4970015;28;20503;-75
2023/10/24 08:33:33;;;;;;;2.60;1.80;;;20.10;76.00;;;;;;4970364;28;20454;-77
2023/10/24 08:36:01;;;;;;;2.27;2.17;;;20.10;75.90;;;;;;4973858;28;20481;-78
2023/10/24 08:38:29;;;;;;;2.00;1.90;;;20.10;75.70;;;;;;4973068;28;20477;-76
2023/10/24 08:40:57;;;;;;;2.30;2.20;;;20.20;75.90;;;;;;4971235;28;20520;-78
2023/10/24 08:43:26;;;;;;;2.50;2.30;;;20.20;75.80;;;;;;4981033;28;20454;-78
2023/10/24 08:45:54;;;;;;;2.83;2.00;;;20.20;76.10;;;;;;4972829;28;20442;-78
2023/10/24 08:48:22;;;;;;;2.27;2.17;;;20.20;75.90;;;;;;4971615;28;20448;-78
2023/10/24 08:50:51;;;;;;;1.80;1.70;;;20.10;75.90;;;;;;4959827;28;20450;-78
2023/10/24 08:53:19;;;;;;;2.20;2.10;;;20.10;76.00;;;;;;4968455;28;20812;-77
2023/10/24 08:55:50;;;;;;;2.40;2.20;;;20.20;76.20;;;;;;4972606;28;20852;-78
2023/10/24 08:58:18;;;;;;;2.30;2.10;;;20.20;76.30;;;;;;4972472;28;20475;-78
2023/10/24 09:00:48;;;;;;;2.27;2.17;;;20.20;75.80;;;;;;4970407;28;20477;-78
2023/10/24 09:03:17;;;;;;;2.20;2.10;;;20.20;75.90;;;;;;4971906;28;20450;-76
2023/10/24 09:05:46;;;;;;;2.17;1.97;;;20.20;76.00;;;;;;4968746;28;20442;-79
2023/10/24 09:08:16;;;;;;;2.00;1.90;;;20.20;75.90;;;;;;4964157;28;20542;-78
2023/10/24 09:10:46;;;;;;;2.43;2.33;;;20.20;75.90;;;;;;4968833;28;20475;-79
2023/10/24 09:13:14;;;;;;;3.17;2.60;;;20.30;76.00;;;;;;4966863;28;20442;-78
2023/10/24 09:16:05;;;;;;;2.10;2.00;;;20.30;75.70;;;;;;4939311;28;20445;-82
2023/10/24 09:18:36;;;;;;;2.53;2.33;;;20.30;75.50;;;;;;4971771;28;20469;-79
2023/10/24 09:21:05;;;;;;;2.37;2.27;;;20.30;75.40;;;;;;4972828;28;20452;-78
2023/10/24 09:23:35;;;;;;;2.13;2.00;;;20.20;75.50;;;;;;4970691;28;20489;-77
2023/10/24 09:26:04;;;;;;;3.03;2.20;;;20.20;75.70;;;;;;4968324;28;20436;-78
2023/10/24 09:28:33;;;;;;;2.10;2.00;;;20.30;76.00;;;;;;4970944;28;20474;-79
2023/10/24 09:31:01;;;;;;;2.03;1.93;;;20.20;75.80;;;;;;4962644;28;20457;-78
2023/10/24 09:33:30;;;;;;;2.57;2.47;;;20.20;75.80;;;;;;4973896;28;20447;-77
2023/10/24 09:35:58;;;;;;;2.40;2.30;;;20.20;75.90;;;;;;4975019;28;20434;-78
2023/10/24 09:38:44;;;;;;;2.10;2.00;;;20.20;75.80;;;;;;4961477;28;20458;-80
2023/10/24 09:41:12;;;;;;;9.03;2.63;;;20.20;75.70;;;;;;4969365;28;20461;-81
2023/10/24 09:43:42;;;;;;;7.10;5.47;;;20.20;76.40;;;;;;4979344;28;20904;-79
2023/10/24 09:46:10;;;;;;;6.13;5.40;;;18.70;75.70;;;;;;4977289;28;20934;-79
2023/10/24 09:48:39;;;;;;;7.30;5.47;;;17.40;80.90;;;;;;4971376;28;20477;-79
2023/10/24 09:51:10;;;;;;;8.67;5.87;;;17.00;87.20;;;;;;4981401;28;20450;-80
2023/10/24 09:53:38;;;;;;;7.80;5.50;;;16.60;89.50;;;;;;4980519;28;20466;-80
2023/10/24 09:56:08;;;;;;;6.20;5.43;;;16.20;90.40;;;;;;4977966;28;20509;-80
2023/10/24 09:58:41;;;;;;;6.97;5.50;;;15.80;93.20;;;;;;4976633;28;20509;-80
2023/10/24 10:01:10;;;;;;;5.97;5.37;;;15.90;93.80;;;;;;4969165;28;20514;-78
2023/10/24 10:03:38;;;;;;;6.30;5.70;;;16.10;93.90;;;;;;4977852;28;20469;-77
2023/10/24 10:06:10;;;;;;;14.43;6.07;;;15.60;94.90;;;;;;4976441;28;20450;-78
2023/10/24 10:08:41;;;;;;;7.50;5.77;;;15.60;97.10;;;;;;4983080;28;20528;-79
2023/10/24 10:11:11;;;;;;;5.23;4.33;;;15.70;96.90;;;;;;4972230;28;20513;-78
2023/10/24 10:13:43;;;;;;;3.70;3.40;;;16.20;99.90;;;;;;4975773;28;20560;-78
2023/10/24 10:16:20;;;;;;;4.43;3.30;;;17.10;99.90;;;;;;4975599;28;20487;-78
2023/10/24 10:19:00;;;;;;;3.63;3.20;;;17.70;97.70;;;;;;4974168;28;20438;-79
2023/10/24 10:21:33;;;;;;;3.30;3.00;;;18.20;95.40;;;;;;4968342;28;20608;-78
2023/10/24 10:24:20;;;;;;;4.27;3.00;;;18.60;93.60;;;;;;4974753;28;20489;-78
2023/10/24 10:26:59;;;;;;;3.07;2.77;;;18.80;92.40;;;;;;4974056;28;20533;-79
2023/10/24 10:29:34;;;;;;;2.97;2.63;;;19.00;91.00;;;;;;4979692;28;20481;-78
2023/10/24 10:32:12;;;;;;;2.70;2.50;;;19.20;90.30;;;;;;4980228;28;20480;-79
2023/10/24 10:35:00;;;;;;;3.20;2.40;;;19.30;89.20;;;;;;4979656;28;20465;-78
2023/10/24 10:37:33;;;;;;;2.50;2.30;;;19.50;87.90;;;;;;4977640;28;20465;-78
2023/10/24 10:40:24;;;;;;;7.97;2.43;;;19.70;86.70;;;;;;4978526;28;20457;-78
2023/10/24 10:42:54;;;;;;;2.13;2.03;;;19.90;85.60;;;;;;4974199;28;20521;-78
2023/10/24 10:45:23;;;;;;;8.10;1.70;;;20.00;84.80;;;;;;4985979;28;20453;-79
2023/10/24 10:47:51;;;;;;;2.30;1.90;;;20.10;83.90;;;;;;4985032;28;20442;-79
2023/10/24 10:50:23;;;;;;;1.50;1.40;;;20.20;83.30;;;;;;4997376;28;20496;-79
2023/10/24 10:52:56;;;;;;;2.27;2.13;;;20.30;82.80;;;;;;4980752;28;20450;-77
2023/10/24 10:55:39;;;;;;;2.17;1.90;;;20.40;82.30;;;;;;4982961;28;20472;-79
2023/10/24 10:58:20;;;;;;;3.40;1.97;;;20.50;81.70;;;;;;4967900;28;20474;-77
2023/10/24 11:00:57;;;;;;;1.80;1.70;;;20.60;80.90;;;;;;4968579;28;20463;-77
2023/10/24 11:03:42;;;;;;;2.90;2.30;;;20.70;80.40;;;;;;4970409;28;20429;-78
2023/10/24 11:06:15;;;;;;;1.70;1.60;;;20.90;79.90;;;;;;4968074;28;20454;-78
2023/10/24 11:08:46;;;;;;;1.93;1.83;;;21.00;79.50;;;;;;4972627;28;20474;-77
2023/10/24 11:11:14;;;;;;;3.30;2.40;;;21.10;78.80;;;;;;4976176;28;20481;-78
2023/10/24 11:13:44;;;;;;;2.00;1.90;;;21.20;77.80;;;;;;4971630;28;20458;-77
2023/10/24 11:16:12;;;;;;;2.87;2.10;;;21.20;77.20;;;;;;4969364;28;20457;-78
2023/10/24 11:18:43;;;;;;;2.13;2.03;;;21.10;77.00;;;;;;4974301;28;20466;-78
2023/10/24 11:21:12;;;;;;;2.50;2.10;;;21.10;77.00;;;;;;4974423;28;20482;-78
2023/10/24 11:23:43;;;;;;;3.30;2.40;;;21.10;77.00;;;;;;4973078;28;20554;-77
2023/10/24 11:26:11;;;;;;;1.97;1.87;;;21.00;76.90;;;;;;4972627;28;20511;-79
2023/10/24 11:28:42;;;;;;;3.43;1.93;;;21.00;77.10;;;;;;4963228;28;20533;-78
2023/10/24 11:31:25;;;;;;;2.13;1.90;;;21.00;76.90;;;;;;4973460;28;20455;-77
2023/10/24 11:33:57;;;;;;;3.03;1.97;;;21.00;77.00;;;;;;4974964;28;20516;-79
2023/10/24 11:36:30;;;;;;;2.10;2.00;;;21.00;77.00;;;;;;4973573;28;20459;-78
2023/10/24 11:39:04;;;;;;;1.70;1.60;;;21.00;77.20;;;;;;4973366;28;20442;-79
2023/10/24 11:41:35;;;;;;;3.60;1.80;;;21.00;77.00;;;;;;4964266;28;20795;-81
2023/10/24 11:44:04;;;;;;;1.90;1.80;;;21.00;77.00;;;;;;4981363;28;20461;-79
2023/10/24 11:46:34;;;;;;;1.80;1.70;;;21.10;77.10;;;;;;4976765;28;20499;-79
2023/10/24 11:49:02;;;;;;;3.20;1.90;;;21.10;76.80;;;;;;4976583;28;20536;-79
2023/10/24 11:51:31;;;;;;;3.80;2.03;;;21.10;77.00;;;;;;4979941;28;20466;-80
2023/10/24 11:54:02;;;;;;;2.47;2.07;;;21.10;76.90;;;;;;4977996;28;20441;-79
2023/10/24 11:56:30;;;;;;;1.80;1.70;;;21.10;77.00;;;;;;4979812;28;20438;-79
2023/10/24 11:58:59;;;;;;;1.70;1.60;;;21.20;76.80;;;;;;4970907;28;20469;-79
2023/10/24 12:01:29;;;;;;;1.87;1.77;;;21.20;76.80;;;;;;4977629;28;20456;-81
2023/10/24 12:03:59;;;;;;;1.97;1.60;;;21.20;76.90;;;;;;4981535;28;20466;-77
2023/10/24 12:06:29;;;;;;;2.10;2.00;;;21.20;76.60;;;;;;4976191;28;20479;-79
2023/10/24 12:08:58;;;;;;;1.80;1.70;;;21.20;76.50;;;;;;4976230;28;20538;-80
2023/10/24 12:11:26;;;;;;;2.70;1.90;;;21.20;76.60;;;;;;4980136;28;20497;-79
2023/10/24 12:13:54;;;;;;;4.47;2.30;;;21.20;76.70;;;;;;4977563;28;20548;-80
2023/10/24 12:16:28;;;;;;;1.97;1.87;;;21.30;76.60;;;;;;4983794;28;20529;-80
2023/10/24 12:19:08;;;;;;;1.80;1.70;;;21.30;76.50;;;;;;4969095;28;20514;-78
2023/10/24 12:21:36;;;;;;;1.47;1.37;;;21.40;76.60;;;;;;4983599;28;20438;-80
2023/10/24 12:24:07;;;;;;;1.93;1.83;;;21.40;76.40;;;;;;4989666;28;20453;-79
2023/10/24 12:26:35;;;;;;;2.30;2.10;;;21.60;76.00;;;;;;4970352;28;20522;-79
2023/10/24 12:29:09;;;;;;;2.03;1.70;;;21.70;75.90;;;;;;4969937;28;20438;-79
2023/10/24 12:31:37;;;;;;;2.00;1.73;;;21.80;75.80;;;;;;4975778;28;21020;-80
2023/10/24 12:34:06;;;;;;;2.50;1.57;;;21.90;75.30;;;;;;4970382;28;20436;-79
2023/10/24 12:36:36;;;;;;;2.33;1.80;;;22.00;76.40;;;;;;4975526;28;20876;-79
2023/10/24 12:39:04;;;;;;;2.33;2.23;;;22.20;75.20;;;;;;4974814;28;20454;-80
2023/10/24 12:41:31;;;;;;;1.77;1.67;;;22.40;74.90;;;;;;4976247;28;20427;-80
2023/10/24 12:44:00;;;;;;;5.53;2.10;;;22.40;73.90;;;;;;4977432;28;20470;-80
2023/10/24 12:46:28;;;;;;;4.60;2.00;;;22.40;73.70;;;;;;4971321;28;20459;-81
2023/10/24 12:48:56;;;;;;;2.47;2.10;;;22.40;73.80;;;;;;4965592;28;20482;-80
2023/10/24 12:51:29;;;;;;;3.70;2.17;;;22.40;73.70;;;;;;4980366;28;20474;-81
2023/10/24 12:53:59;;;;;;;4.80;2.63;;;22.30;73.50;;;;;;4972757;28;20473;-79
2023/10/24 12:56:27;;;;;;;2.60;2.30;;;22.20;73.80;;;;;;4979123;28;20481;-83
2023/10/24 12:58:56;;;;;;;2.30;2.20;;;22.20;73.90;;;;;;4975542;28;20501;-79